Time;durP1;ratioP1;P1;durP2;ratioP2;P2;SDS_P1;SDS_P2;PMS_P1;PMS_P2;Temp;Humidity;BMP_temperature;BMP_pressure;BME280_temperature;BME280_humidity;BME280_pressure;Samples;Min_cycle;Max_cycle;Signal;HPM_P1;HPM_P2
2022/01/15 00:01:40;;;;;;;25.50;10.10;;;1.90;99.90;;;;;;5046092;28;20200;-66
2022/01/15 00:04:07;;;;;;;28.00;10.60;;;1.90;99.90;;;;;;5041331;28;20217;-66
2022/01/15 00:06:34;;;;;;;28.67;11.00;;;1.90;99.90;;;;;;5044680;28;20196;-66
2022/01/15 00:09:01;;;;;;;26.47;10.60;;;1.80;99.90;;;;;;5041194;28;20209;-66
2022/01/15 00:11:28;;;;;;;28.53;10.27;;;1.80;99.90;;;;;;5045949;28;20586;-66
2022/01/15 00:14:11;;;;;;;25.33;10.70;;;1.90;99.90;;;;;;5045014;28;20223;-66
2022/01/15 00:16:57;;;;;;;28.90;11.80;;;1.90;99.90;;;;;;5033507;28;20213;-66
2022/01/15 00:19:41;;;;;;;27.87;11.03;;;1.90;99.90;;;;;;5037433;28;20249;-66
2022/01/15 00:22:16;;;;;;;29.10;10.40;;;2.00;99.90;;;;;;5043673;28;20194;-66
2022/01/15 00:24:45;;;;;;;26.70;10.70;;;1.80;99.90;;;;;;5044388;28;20229;-66
2022/01/15 00:27:12;;;;;;;30.63;11.03;;;1.90;99.90;;;;;;5045111;28;20606;-66
2022/01/15 00:29:39;;;;;;;27.27;10.67;;;1.90;99.90;;;;;;5044204;28;20209;-66
2022/01/15 00:32:07;;;;;;;22.47;10.30;;;1.90;99.90;;;;;;5047808;28;20227;-66
2022/01/15 00:34:34;;;;;;;27.50;10.57;;;2.00;99.90;;;;;;5041718;28;20225;-66
2022/01/15 00:37:02;;;;;;;24.10;10.10;;;1.90;99.90;;;;;;5047125;28;20727;-66
2022/01/15 00:39:29;;;;;;;28.17;10.77;;;2.00;99.90;;;;;;5048554;28;20247;-66
2022/01/15 00:41:56;;;;;;;29.47;11.00;;;2.00;99.90;;;;;;5048930;28;20572;-66
2022/01/15 00:44:23;;;;;;;30.20;10.83;;;1.90;99.90;;;;;;5048238;28;20225;-66
2022/01/15 00:46:50;;;;;;;24.37;9.77;;;1.90;99.90;;;;;;5046107;28;20198;-66
2022/01/15 00:49:17;;;;;;;26.33;10.57;;;1.90;99.90;;;;;;5048248;28;20657;-66
2022/01/15 00:51:43;;;;;;;24.87;10.20;;;1.90;99.90;;;;;;5046204;28;20560;-66
2022/01/15 00:54:10;;;;;;;28.07;11.60;;;1.90;99.90;;;;;;5042745;28;20687;-66
2022/01/15 00:56:37;;;;;;;30.70;10.63;;;2.10;99.90;;;;;;5045359;28;20206;-66
2022/01/15 00:59:03;;;;;;;29.00;11.00;;;2.00;99.90;;;;;;5044639;28;20610;-66
2022/01/15 01:01:30;;;;;;;27.07;10.50;;;2.00;99.90;;;;;;5042693;28;20197;-66
2022/01/15 01:03:57;;;;;;;28.33;11.33;;;2.10;99.90;;;;;;5042742;28;20275;-66
2022/01/15 01:06:24;;;;;;;24.83;10.27;;;2.10;99.90;;;;;;5046376;28;20220;-66
2022/01/15 01:08:51;;;;;;;27.77;10.47;;;2.00;99.90;;;;;;5046391;28;20198;-66
2022/01/15 01:11:28;;;;;;;21.03;9.53;;;2.00;99.90;;;;;;5047151;28;20695;-66
2022/01/15 01:24:42;;;;;;;20.60;9.13;;;2.10;99.90;;;;;;5040682;28;20219;-66
2022/01/15 01:27:17;;;;;;;24.00;10.33;;;2.10;99.90;;;;;;5044854;28;20205;-66
2022/01/15 01:35:06;;;;;;;23.83;8.80;;;2.00;99.90;;;;;;5046734;28;20240;-66
2022/01/15 01:37:38;;;;;;;22.80;9.10;;;2.00;99.90;;;;;;5043391;28;20224;-66
2022/01/15 01:40:36;;;;;;;19.33;8.47;;;1.90;99.90;;;;;;5042141;28;20219;-66
2022/01/15 01:43:39;;;;;;;20.00;7.70;;;1.90;99.90;;;;;;5039196;28;20662;-66
2022/01/15 01:46:13;;;;;;;15.40;7.47;;;1.90;99.90;;;;;;5046035;28;20341;-66
2022/01/15 01:48:41;;;;;;;18.87;7.20;;;1.90;99.90;;;;;;5045579;28;20210;-66
2022/01/15 01:51:08;;;;;;;18.17;8.37;;;1.90;99.90;;;;;;5047947;28;20194;-66
2022/01/15 01:53:35;;;;;;;17.73;7.77;;;1.90;99.90;;;;;;5044040;28;20213;-66
2022/01/15 01:56:03;;;;;;;18.43;8.07;;;1.80;99.90;;;;;;5048398;28;20809;-66
2022/01/15 01:58:30;;;;;;;15.60;6.63;;;1.80;99.90;;;;;;5045675;28;20195;-66
2022/01/15 02:00:57;;;;;;;14.90;6.53;;;1.70;99.90;;;;;;5044805;28;20219;-66
2022/01/15 02:03:24;;;;;;;16.70;6.23;;;1.80;99.90;;;;;;5040914;28;20303;-66
2022/01/15 02:05:51;;;;;;;15.23;6.67;;;1.80;99.90;;;;;;5045374;28;20193;-66
2022/01/15 02:08:18;;;;;;;14.63;7.00;;;1.90;99.90;;;;;;5042906;28;20209;-66
2022/01/15 02:10:45;;;;;;;15.67;6.80;;;1.90;99.90;;;;;;5044875;28;20206;-66
2022/01/15 02:13:13;;;;;;;16.37;6.83;;;2.00;99.90;;;;;;5040982;28;20233;-66
2022/01/15 02:15:40;;;;;;;15.43;7.20;;;2.00;99.90;;;;;;5042647;28;20294;-66
2022/01/15 02:18:07;;;;;;;15.23;7.47;;;2.00;99.90;;;;;;5044327;28;20280;-66
2022/01/15 02:20:49;;;;;;;15.07;6.80;;;2.00;99.90;;;;;;5045508;28;20214;-66
2022/01/15 02:23:35;;;;;;;13.60;7.00;;;2.00;99.90;;;;;;5048272;28;20736;-66
2022/01/15 02:26:07;;;;;;;15.47;7.17;;;2.20;99.90;;;;;;5043489;28;20194;-66
2022/01/15 02:28:40;;;;;;;16.67;7.23;;;2.20;99.90;;;;;;5043516;28;20206;-66
2022/01/15 02:31:12;;;;;;;16.10;6.90;;;2.10;99.90;;;;;;5042480;28;20198;-66
2022/01/15 02:33:40;;;;;;;14.97;6.70;;;2.00;99.90;;;;;;5037804;28;20298;-66
2022/01/15 02:36:14;;;;;;;13.77;6.87;;;2.10;99.90;;;;;;5041851;28;20191;-66
2022/01/15 02:38:42;;;;;;;14.17;7.03;;;2.10;99.90;;;;;;5045797;28;20608;-66
2022/01/15 02:41:09;;;;;;;20.73;7.30;;;2.10;99.90;;;;;;5045029;28;20862;-66
2022/01/15 02:43:37;;;;;;;18.30;7.30;;;2.00;99.90;;;;;;5038418;28;20222;-66
2022/01/15 02:48:56;;;;;;;19.97;7.77;;;2.10;99.90;;;;;;5042800;28;20253;-66
2022/01/15 02:51:31;;;;;;;16.37;8.07;;;2.20;99.90;;;;;;5043610;28;20206;-66
2022/01/15 02:53:58;;;;;;;16.30;7.67;;;2.20;99.90;;;;;;5038162;28;20234;-66
2022/01/15 02:56:33;;;;;;;20.67;8.13;;;2.10;99.90;;;;;;5039396;28;20210;-66
2022/01/15 02:59:02;;;;;;;16.27;7.50;;;2.20;99.90;;;;;;5043676;28;20215;-66
2022/01/15 03:01:30;;;;;;;20.00;8.40;;;2.10;99.90;;;;;;5045158;28;20221;-66
2022/01/15 03:03:57;;;;;;;18.30;8.17;;;2.20;99.90;;;;;;5046296;28;20206;-66
2022/01/15 03:06:24;;;;;;;16.33;7.80;;;2.20;99.90;;;;;;5039964;28;20205;-66
2022/01/15 03:08:52;;;;;;;20.47;7.87;;;2.30;99.90;;;;;;5044222;28;20715;-66
2022/01/15 03:11:20;;;;;;;20.40;8.40;;;2.30;99.90;;;;;;5042572;28;20527;-66
2022/01/15 03:13:47;;;;;;;21.57;7.67;;;2.20;99.90;;;;;;5045813;28;20225;-66
2022/01/15 03:16:17;;;;;;;20.13;8.33;;;2.20;99.90;;;;;;5045010;28;20213;-66
2022/01/15 03:18:44;;;;;;;20.77;8.00;;;2.20;99.90;;;;;;5041732;28;20712;-66
2022/01/15 03:21:11;;;;;;;16.67;7.53;;;2.10;99.90;;;;;;5042512;28;20214;-66
2022/01/15 03:23:38;;;;;;;20.70;8.30;;;2.10;99.90;;;;;;5046149;28;20224;-66
2022/01/15 03:26:07;;;;;;;22.23;8.53;;;2.20;99.90;;;;;;5044658;28;20563;-66
2022/01/15 03:28:35;;;;;;;16.47;7.70;;;2.30;99.90;;;;;;5043521;28;20202;-66
2022/01/15 03:31:02;;;;;;;18.43;8.53;;;2.30;99.90;;;;;;5042636;28;20206;-66
2022/01/15 03:33:31;;;;;;;19.67;7.67;;;2.30;99.90;;;;;;5038785;28;20269;-66
2022/01/15 03:35:57;;;;;;;19.27;7.90;;;2.20;99.90;;;;;;5048132;28;20301;-66
2022/01/15 03:38:24;;;;;;;20.73;7.93;;;2.20;99.90;;;;;;5044451;28;20203;-66
2022/01/15 03:40:54;;;;;;;22.70;9.13;;;2.30;99.90;;;;;;5042989;28;20288;-66
2022/01/15 03:43:22;;;;;;;19.40;8.47;;;2.40;99.90;;;;;;5042301;28;20224;-66
2022/01/15 03:45:49;;;;;;;17.77;7.93;;;2.40;99.90;;;;;;5044731;28;20186;-66
2022/01/15 03:48:15;;;;;;;18.03;8.37;;;2.40;99.90;;;;;;5041114;28;20193;-66
2022/01/15 03:50:42;;;;;;;21.10;9.13;;;2.40;99.90;;;;;;5044769;28;20202;-66
2022/01/15 03:53:09;;;;;;;23.90;9.00;;;2.40;99.90;;;;;;5041852;28;20196;-66
2022/01/15 03:55:36;;;;;;;22.37;8.63;;;2.40;99.90;;;;;;5055338;28;20199;-66
2022/01/15 03:58:02;;;;;;;20.73;8.80;;;2.50;99.90;;;;;;5050178;28;20510;-66
2022/01/15 04:00:29;;;;;;;21.40;8.60;;;2.50;99.90;;;;;;5048788;28;20226;-66
2022/01/15 04:02:57;;;;;;;24.17;8.97;;;2.50;99.90;;;;;;5049730;28;20226;-66
2022/01/15 04:05:24;;;;;;;21.97;8.63;;;2.60;99.90;;;;;;5046685;28;20268;-66
2022/01/15 04:07:51;;;;;;;19.17;8.37;;;2.50;99.90;;;;;;5046688;28;20203;-66
2022/01/15 04:10:19;;;;;;;21.67;8.30;;;2.40;99.90;;;;;;5046929;28;20281;-66
2022/01/15 04:12:45;;;;;;;21.57;8.30;;;2.40;99.90;;;;;;5049094;28;20325;-66
2022/01/15 04:15:13;;;;;;;22.07;8.53;;;2.50;99.90;;;;;;5049849;28;20244;-66
2022/01/15 04:17:46;;;;;;;22.00;8.20;;;2.50;99.90;;;;;;5048082;28;21167;-66
2022/01/15 04:20:16;;;;;;;19.97;8.33;;;2.50;99.90;;;;;;5048544;28;20195;-66
2022/01/15 04:22:43;;;;;;;21.90;8.30;;;2.50;99.90;;;;;;5048023;28;20206;-66
2022/01/15 04:25:11;;;;;;;20.97;7.97;;;2.50;99.90;;;;;;5050363;28;20213;-66
2022/01/15 04:27:38;;;;;;;17.67;7.83;;;2.50;99.90;;;;;;5040306;28;20198;-66
2022/01/15 04:30:07;;;;;;;21.77;8.07;;;2.50;99.90;;;;;;5049664;28;20193;-66
2022/01/15 04:32:33;;;;;;;20.77;8.10;;;2.60;99.90;;;;;;5047345;28;20198;-66
2022/01/15 04:35:00;;;;;;;21.23;8.30;;;2.60;99.90;;;;;;5044544;28;20712;-66
2022/01/15 04:37:36;;;;;;;22.70;8.87;;;2.60;99.90;;;;;;5044486;28;20205;-66
2022/01/15 04:40:05;;;;;;;18.93;8.47;;;2.70;99.90;;;;;;5041492;28;20202;-66
2022/01/15 04:42:32;;;;;;;21.30;8.13;;;2.80;99.90;;;;;;5045243;28;20217;-66
2022/01/15 04:44:59;;;;;;;19.70;8.80;;;2.80;99.90;;;;;;5041306;28;20230;-66
2022/01/15 04:47:25;;;;;;;24.67;8.40;;;2.80;99.90;;;;;;5047932;28;20198;-66
2022/01/15 04:49:54;;;;;;;20.90;8.17;;;2.80;99.90;;;;;;5047901;28;20199;-66
2022/01/15 04:52:24;;;;;;;21.87;8.47;;;2.70;99.90;;;;;;5048061;28;20191;-66
2022/01/15 04:54:51;;;;;;;24.47;8.87;;;2.80;99.90;;;;;;5046483;28;20207;-66
2022/01/15 04:57:18;;;;;;;20.77;8.57;;;2.70;99.90;;;;;;5047342;28;20206;-66
2022/01/15 04:59:45;;;;;;;22.57;8.30;;;2.60;99.90;;;;;;5048459;28;20194;-66
2022/01/15 05:02:11;;;;;;;20.50;8.77;;;2.70;99.90;;;;;;5044709;28;20685;-66
2022/01/15 05:04:38;;;;;;;22.87;9.53;;;2.70;99.90;;;;;;5048124;28;20217;-66
2022/01/15 05:07:09;;;;;;;21.17;8.03;;;2.70;99.90;;;;;;5041929;28;20214;-66
2022/01/15 05:09:37;;;;;;;20.00;7.80;;;2.70;99.90;;;;;;5042613;28;20218;-66
2022/01/15 05:12:10;;;;;;;22.00;8.43;;;2.90;99.90;;;;;;5048817;28;20668;-66
2022/01/15 05:14:37;;;;;;;24.23;8.60;;;2.80;99.90;;;;;;5045603;28;20222;-66
2022/01/15 05:17:05;;;;;;;23.97;8.50;;;2.70;99.90;;;;;;5049278;28;20640;-66
2022/01/15 05:19:31;;;;;;;21.03;9.00;;;2.70;99.90;;;;;;5045053;28;20583;-66
2022/01/15 05:21:58;;;;;;;21.20;8.00;;;2.70;99.90;;;;;;5053104;28;20218;-66
2022/01/15 05:24:26;;;;;;;22.50;8.43;;;2.70;99.90;;;;;;5044878;28;20218;-66
2022/01/15 05:26:54;;;;;;;24.27;7.73;;;2.80;99.90;;;;;;5042459;28;20213;-66
2022/01/15 05:29:21;;;;;;;22.07;7.77;;;2.70;99.90;;;;;;5044283;28;20191;-66
2022/01/15 05:31:48;;;;;;;22.40;8.23;;;2.70;99.90;;;;;;5044484;28;20198;-66
2022/01/15 05:34:15;;;;;;;19.97;7.90;;;2.80;99.90;;;;;;5034573;28;20222;-66
2022/01/15 05:36:41;;;;;;;22.33;8.03;;;2.70;99.90;;;;;;5042641;28;20198;-66
2022/01/15 05:39:08;;;;;;;15.20;7.70;;;2.80;99.90;;;;;;5047371;28;20199;-66
2022/01/15 05:41:35;;;;;;;19.73;8.23;;;2.80;99.90;;;;;;5045130;28;20218;-66
2022/01/15 05:44:03;;;;;;;17.67;7.37;;;2.80;99.90;;;;;;5039246;28;20705;-66
2022/01/15 05:46:31;;;;;;;17.73;8.03;;;3.00;99.90;;;;;;5042376;28;20205;-66
2022/01/15 05:48:58;;;;;;;14.30;6.90;;;2.90;99.90;;;;;;5047947;28;20202;-66
2022/01/15 05:51:29;;;;;;;22.80;8.20;;;2.90;99.90;;;;;;5049206;28;20226;-66
2022/01/15 05:54:00;;;;;;;16.60;7.47;;;2.90;99.90;;;;;;5041093;28;20300;-66
2022/01/15 05:56:28;;;;;;;16.47;7.80;;;2.90;99.90;;;;;;5045990;28;20569;-66
2022/01/15 05:58:55;;;;;;;18.33;7.90;;;2.90;99.90;;;;;;5047937;28;20297;-66
2022/01/15 06:01:22;;;;;;;18.10;7.53;;;2.80;99.90;;;;;;5046387;28;20265;-66
2022/01/15 06:03:49;;;;;;;17.17;7.67;;;2.90;99.90;;;;;;5047098;28;20242;-66
2022/01/15 06:06:16;;;;;;;21.03;7.97;;;2.80;99.90;;;;;;5043276;28;20283;-66
2022/01/15 06:08:43;;;;;;;14.23;6.93;;;2.80;99.90;;;;;;5035230;28;20202;-66
2022/01/15 06:11:11;;;;;;;16.17;6.97;;;2.80;99.90;;;;;;5047192;28;20198;-66
2022/01/15 06:13:38;;;;;;;14.73;6.67;;;2.70;99.90;;;;;;5046360;28;20572;-66
2022/01/15 06:16:05;;;;;;;16.20;7.27;;;2.70;99.90;;;;;;5041407;28;20205;-66
2022/01/15 06:18:31;;;;;;;20.57;7.47;;;2.60;99.90;;;;;;5047111;28;20190;-66
2022/01/15 06:20:58;;;;;;;16.03;7.40;;;2.60;99.90;;;;;;5047509;28;20225;-66
2022/01/15 06:23:25;;;;;;;18.40;7.93;;;2.70;99.90;;;;;;5043840;28;20218;-66
2022/01/15 06:25:51;;;;;;;11.90;6.87;;;2.70;99.90;;;;;;5040801;28;20561;-66
2022/01/15 06:28:18;;;;;;;15.87;7.70;;;2.80;99.90;;;;;;5048019;28;20186;-66
2022/01/15 06:30:45;;;;;;;16.27;7.70;;;2.80;99.90;;;;;;5040681;28;20566;-66
2022/01/15 06:33:12;;;;;;;14.23;7.33;;;2.90;99.90;;;;;;5042422;28;20770;-65
2022/01/15 06:35:39;;;;;;;16.03;7.20;;;2.80;99.90;;;;;;5042779;28;20277;-66
2022/01/15 06:38:05;;;;;;;13.90;7.27;;;2.80;99.90;;;;;;5046306;28;20198;-66
2022/01/15 06:40:33;;;;;;;16.67;6.20;;;2.90;99.90;;;;;;5042594;28;20570;-66
2022/01/15 06:43:00;;;;;;;16.93;8.13;;;2.90;99.90;;;;;;5042861;28;20214;-66
2022/01/15 06:45:28;;;;;;;14.70;7.43;;;2.90;99.90;;;;;;5043544;28;20703;-66
2022/01/15 06:47:57;;;;;;;16.23;7.20;;;2.80;99.90;;;;;;5044513;28;20675;-66
2022/01/15 06:50:25;;;;;;;14.90;7.60;;;2.90;99.90;;;;;;5045553;28;20202;-66
2022/01/15 06:52:52;;;;;;;13.60;7.60;;;3.00;99.90;;;;;;5041616;28;20634;-66
2022/01/15 06:55:19;;;;;;;13.53;7.37;;;3.00;99.90;;;;;;5042012;28;20726;-66
2022/01/15 06:57:45;;;;;;;11.27;6.00;;;2.90;99.90;;;;;;5040765;28;20211;-66
2022/01/15 07:00:13;;;;;;;13.27;6.63;;;2.90;99.90;;;;;;5044900;28;20195;-66
2022/01/15 07:02:40;;;;;;;13.47;7.07;;;2.90;99.90;;;;;;5040801;28;20215;-66
2022/01/15 07:05:09;;;;;;;17.00;7.53;;;3.00;99.90;;;;;;5046439;28;20215;-66
2022/01/15 07:07:40;;;;;;;15.33;7.07;;;3.00;99.90;;;;;;5047678;28;20195;-66
2022/01/15 07:10:08;;;;;;;13.53;6.73;;;3.00;99.90;;;;;;5041264;28;20563;-66
2022/01/15 07:12:35;;;;;;;14.87;7.27;;;3.00;99.90;;;;;;5044616;28;20761;-66
2022/01/15 07:15:02;;;;;;;17.00;7.07;;;3.00;99.90;;;;;;5047904;28;20218;-66
2022/01/15 07:17:29;;;;;;;14.93;7.50;;;3.00;99.90;;;;;;5039038;28;20203;-66
2022/01/15 07:19:55;;;;;;;14.03;7.27;;;3.10;99.90;;;;;;5045871;28;20200;-67
2022/01/15 07:22:22;;;;;;;14.30;7.73;;;3.00;99.90;;;;;;5041857;28;20226;-66
2022/01/15 07:24:49;;;;;;;17.70;7.63;;;3.00;99.90;;;;;;5048405;28;20210;-67
2022/01/15 07:27:15;;;;;;;17.83;8.57;;;3.10;99.90;;;;;;5045623;28;20206;-66
2022/01/15 07:29:42;;;;;;;16.13;7.27;;;3.10;99.90;;;;;;5047266;28;20202;-67
2022/01/15 07:32:09;;;;;;;17.20;8.33;;;3.10;99.90;;;;;;5047312;28;20717;-67
2022/01/15 07:34:35;;;;;;;15.97;8.63;;;3.10;99.90;;;;;;5045298;28;20215;-67
2022/01/15 07:37:03;;;;;;;12.93;7.20;;;3.10;99.90;;;;;;5039909;28;20202;-66
2022/01/15 07:39:29;;;;;;;17.33;9.07;;;3.10;99.90;;;;;;5044967;28;20204;-66
2022/01/15 07:41:56;;;;;;;18.37;9.27;;;3.10;99.90;;;;;;5041832;28;20229;-69
2022/01/15 07:44:23;;;;;;;18.47;8.77;;;3.10;99.90;;;;;;5047505;28;20214;-69
2022/01/15 07:46:49;;;;;;;18.47;9.37;;;3.10;99.90;;;;;;5048245;28;20504;-68
2022/01/15 07:49:16;;;;;;;17.23;9.37;;;3.20;99.90;;;;;;5050008;28;20194;-71
2022/01/15 07:51:43;;;;;;;16.50;8.63;;;3.20;99.90;;;;;;5050601;28;20204;-71
2022/01/15 07:54:10;;;;;;;17.10;9.67;;;3.10;99.90;;;;;;5049153;28;20688;-68
2022/01/15 07:56:36;;;;;;;18.47;9.00;;;3.20;99.90;;;;;;5045137;28;20656;-69
2022/01/15 07:59:03;;;;;;;17.50;7.90;;;3.20;99.90;;;;;;5047185;28;20195;-70
2022/01/15 08:01:30;;;;;;;19.67;9.33;;;3.20;99.90;;;;;;5051090;28;20302;-71
2022/01/15 08:03:57;;;;;;;14.33;7.77;;;3.20;99.90;;;;;;5050525;28;20205;-69
2022/01/15 08:06:23;;;;;;;18.97;9.80;;;3.20;99.90;;;;;;5050454;28;20202;-69
2022/01/15 08:08:50;;;;;;;16.87;8.83;;;3.20;99.90;;;;;;5051324;28;20206;-68
2022/01/15 08:11:17;;;;;;;18.53;8.60;;;3.30;99.90;;;;;;5057099;28;20202;-70
2022/01/15 08:13:44;;;;;;;15.43;7.67;;;3.20;99.90;;;;;;5051435;28;20215;-67
2022/01/15 08:16:10;;;;;;;15.17;7.53;;;3.20;99.90;;;;;;5049552;28;20206;-67
2022/01/15 08:18:38;;;;;;;13.57;7.30;;;3.20;99.90;;;;;;5054184;28;20227;-68
2022/01/15 08:21:06;;;;;;;17.40;8.40;;;3.20;99.90;;;;;;5052458;28;20202;-68
2022/01/15 08:23:35;;;;;;;16.43;8.20;;;3.30;99.90;;;;;;5050165;28;21487;-70
2022/01/15 08:26:03;;;;;;;15.97;8.10;;;3.30;99.90;;;;;;5049751;28;20766;-71
2022/01/15 08:28:29;;;;;;;12.23;6.67;;;3.30;99.90;;;;;;5056732;28;20214;-71
2022/01/15 08:30:56;;;;;;;14.67;7.60;;;3.30;99.90;;;;;;5050717;28;20190;-70
2022/01/15 08:33:23;;;;;;;14.23;7.60;;;3.40;99.90;;;;;;5046442;28;20214;-71
2022/01/15 08:35:50;;;;;;;14.37;8.03;;;3.50;99.90;;;;;;5050834;28;20206;-71
2022/01/15 08:38:16;;;;;;;14.00;7.33;;;3.40;99.90;;;;;;5051011;28;20190;-73
2022/01/15 08:40:43;;;;;;;15.70;7.90;;;3.50;99.90;;;;;;5045355;28;20250;-72
2022/01/15 08:43:10;;;;;;;14.13;7.87;;;3.50;99.90;;;;;;5050770;28;20701;-71
2022/01/15 08:45:38;;;;;;;14.30;7.63;;;3.60;99.90;;;;;;5066847;28;20210;-67
2022/01/15 08:48:06;;;;;;;13.37;7.47;;;3.60;99.90;;;;;;5045598;28;20203;-68
2022/01/15 08:50:35;;;;;;;14.90;7.80;;;3.50;99.90;;;;;;5047834;28;20191;-66
2022/01/15 08:53:08;;;;;;;15.07;7.50;;;3.40;99.90;;;;;;5046383;28;20218;-66
2022/01/15 08:55:36;;;;;;;17.20;8.30;;;3.50;99.90;;;;;;5049467;28;20194;-66
2022/01/15 08:58:03;;;;;;;16.47;8.20;;;3.60;99.90;;;;;;5049463;28;20191;-66
2022/01/15 09:00:30;;;;;;;15.53;8.07;;;3.50;99.90;;;;;;5050626;28;20195;-66
2022/01/15 09:02:58;;;;;;;15.27;8.43;;;3.50;99.90;;;;;;5047017;28;20222;-66
2022/01/15 09:05:25;;;;;;;14.97;8.17;;;3.50;99.90;;;;;;5048768;28;20190;-66
2022/01/15 09:07:52;;;;;;;14.60;8.13;;;3.60;99.90;;;;;;5043591;28;20199;-71
2022/01/15 09:10:19;;;;;;;16.03;8.50;;;3.70;99.90;;;;;;5053364;28;20198;-66
2022/01/15 09:12:46;;;;;;;16.87;8.40;;;3.70;99.90;;;;;;5045115;28;20232;-66
2022/01/15 09:15:28;;;;;;;17.70;8.80;;;3.70;99.90;;;;;;5045707;28;20574;-68
2022/01/15 09:17:55;;;;;;;22.20;9.37;;;3.80;99.90;;;;;;5033037;28;20320;-68
2022/01/15 09:20:22;;;;;;;19.43;10.57;;;3.80;99.90;;;;;;5039967;28;20200;-67
2022/01/15 09:22:49;;;;;;;16.73;8.40;;;3.80;99.90;;;;;;5046448;28;20211;-67
2022/01/15 09:25:15;;;;;;;17.13;8.70;;;3.80;99.90;;;;;;5046156;28;20219;-67
2022/01/15 09:30:28;;;;;;;19.10;10.40;;;3.60;99.90;;;;;;5045268;28;20608;-66
2022/01/15 09:32:55;;;;;;;19.40;9.37;;;3.70;99.90;;;;;;5047574;28;20567;-65
2022/01/15 09:35:30;;;;;;;18.17;9.50;;;3.70;99.90;;;;;;5053268;28;20228;-66
2022/01/15 09:37:58;;;;;;;17.10;9.30;;;3.80;99.90;;;;;;5041200;28;20203;-66
2022/01/15 09:40:27;;;;;;;18.27;9.47;;;3.90;99.90;;;;;;5047834;28;20208;-66
2022/01/15 09:42:54;;;;;;;19.63;9.17;;;3.90;99.90;;;;;;5045627;28;20252;-66
2022/01/15 09:45:22;;;;;;;17.47;9.43;;;4.00;99.90;;;;;;5047054;28;20190;-66
2022/01/15 09:47:57;;;;;;;17.83;9.60;;;4.10;99.90;;;;;;5046247;28;20204;-66
2022/01/15 09:50:25;;;;;;;14.23;8.87;;;4.10;99.90;;;;;;5049308;28;20635;-66
2022/01/15 09:52:53;;;;;;;16.20;9.10;;;4.20;99.90;;;;;;5045274;28;20302;-66
2022/01/15 09:55:21;;;;;;;13.73;7.73;;;4.20;99.90;;;;;;5045851;28;20208;-66
2022/01/15 09:57:50;;;;;;;15.23;8.70;;;4.10;99.90;;;;;;5048312;28;20211;-66
2022/01/15 10:00:18;;;;;;;13.60;6.97;;;4.10;99.90;;;;;;5047208;28;20198;-65
2022/01/15 10:02:47;;;;;;;13.43;7.00;;;4.00;99.90;;;;;;5043569;28;20483;-66
2022/01/15 10:05:15;;;;;;;11.93;6.67;;;3.90;99.90;;;;;;5046166;28;20218;-66
2022/01/15 10:07:55;;;;;;;12.97;7.20;;;3.90;99.90;;;;;;5039673;28;20202;-67
2022/01/15 10:10:23;;;;;;;15.23;7.90;;;4.00;99.90;;;;;;5044395;28;20202;-69
2022/01/15 10:12:50;;;;;;;14.27;7.40;;;4.00;99.90;;;;;;5043629;28;20200;-68
2022/01/15 10:15:17;;;;;;;14.23;8.13;;;4.00;99.90;;;;;;5045742;28;20314;-67
2022/01/15 10:17:44;;;;;;;17.50;8.87;;;4.00;99.90;;;;;;5047581;28;20202;-66
2022/01/15 10:20:18;;;;;;;13.03;7.23;;;4.10;99.90;;;;;;5046737;28;20201;-67
2022/01/15 10:22:47;;;;;;;12.10;6.10;;;4.00;99.90;;;;;;5043342;28;20701;-67
2022/01/15 10:25:20;;;;;;;11.30;6.80;;;4.00;99.90;;;;;;5043734;28;20209;-66
2022/01/15 10:27:52;;;;;;;10.17;6.20;;;4.10;99.90;;;;;;5051024;28;20206;-66
2022/01/15 10:30:26;;;;;;;10.63;5.97;;;4.20;99.90;;;;;;5046590;28;20196;-68
2022/01/15 10:33:01;;;;;;;11.47;6.23;;;4.30;99.90;;;;;;5044798;28;20355;-68
2022/01/15 10:35:37;;;;;;;10.80;6.43;;;4.30;99.90;;;;;;5042740;28;20204;-68
2022/01/15 10:38:09;;;;;;;11.07;6.17;;;4.20;99.90;;;;;;5046557;28;20672;-72
2022/01/15 10:40:41;;;;;;;10.70;6.17;;;4.20;99.90;;;;;;5046515;28;20202;-68
2022/01/15 10:43:09;;;;;;;19.90;7.63;;;4.10;99.90;;;;;;5044388;28;20226;-67
2022/01/15 10:45:54;;;;;;;11.93;6.57;;;4.00;99.90;;;;;;5047353;28;20194;-67
2022/01/15 10:48:32;;;;;;;14.13;6.97;;;4.10;99.90;;;;;;5044796;28;20620;-66
2022/01/15 10:51:07;;;;;;;15.67;7.60;;;4.20;99.90;;;;;;5047818;28;20194;-66
2022/01/15 10:53:45;;;;;;;13.73;7.60;;;4.30;99.90;;;;;;5045282;28;20215;-67
2022/01/15 10:56:14;;;;;;;12.77;7.73;;;4.30;99.90;;;;;;5046471;28;20206;-67
2022/01/15 10:58:44;;;;;;;15.80;8.43;;;4.40;99.90;;;;;;5045693;28;20197;-67
2022/01/15 11:01:13;;;;;;;15.97;7.80;;;4.40;99.90;;;;;;5047413;28;20195;-67
2022/01/15 11:03:44;;;;;;;15.77;8.03;;;4.40;99.90;;;;;;5051335;28;20233;-67
2022/01/15 11:06:10;;;;;;;13.50;7.87;;;4.50;99.90;;;;;;5051163;28;20645;-66
2022/01/15 11:08:39;;;;;;;16.00;8.63;;;4.50;99.90;;;;;;5047863;28;20197;-66
2022/01/15 11:11:13;;;;;;;13.30;8.40;;;4.40;99.90;;;;;;5041761;28;20203;-67
2022/01/15 11:13:43;;;;;;;16.63;8.40;;;4.50;99.90;;;;;;5048177;28;20316;-66
2022/01/15 11:16:14;;;;;;;16.30;9.30;;;4.50;99.90;;;;;;5047253;28;20196;-65
2022/01/15 11:18:43;;;;;;;16.93;9.83;;;4.50;99.90;;;;;;5047967;28;20202;-66
2022/01/15 11:21:13;;;;;;;15.87;9.30;;;4.50;99.90;;;;;;5045611;28;20196;-66
2022/01/15 11:23:41;;;;;;;16.93;8.73;;;4.40;99.90;;;;;;5047206;28;20223;-66
2022/01/15 11:26:11;;;;;;;14.17;8.73;;;4.40;99.90;;;;;;5039895;28;20193;-66
2022/01/15 11:28:39;;;;;;;19.03;9.40;;;4.30;99.90;;;;;;5047156;28;20197;-65
2022/01/15 11:31:09;;;;;;;20.23;10.77;;;4.30;99.90;;;;;;5049064;28;20656;-66
2022/01/15 11:33:47;;;;;;;18.17;9.90;;;4.30;99.90;;;;;;5043775;28;20221;-66
2022/01/15 11:36:39;;;;;;;22.60;10.80;;;4.30;99.90;;;;;;5049422;28;20602;-69
2022/01/15 11:39:08;;;;;;;20.77;10.67;;;4.20;99.90;;;;;;5040279;28;20198;-71
2022/01/15 11:41:42;;;;;;;17.57;9.30;;;4.20;99.90;;;;;;5044085;28;20210;-68
2022/01/15 11:44:19;;;;;;;18.67;9.97;;;4.10;99.90;;;;;;5042348;28;20214;-69
2022/01/15 11:46:48;;;;;;;21.50;11.07;;;4.10;99.90;;;;;;5053446;28;20211;-66
2022/01/15 11:49:41;;;;;;;23.93;10.73;;;4.20;99.90;;;;;;5042317;28;20194;-71
2022/01/15 11:52:08;;;;;;;22.40;11.03;;;4.20;99.90;;;;;;5044046;28;20197;-68
2022/01/15 11:54:48;;;;;;;19.80;11.23;;;4.30;99.90;;;;;;5044724;28;20226;-66
2022/01/15 11:57:21;;;;;;;20.67;10.70;;;4.40;99.90;;;;;;5046632;28;20216;-66
2022/01/15 11:59:50;;;;;;;22.47;11.50;;;4.40;99.90;;;;;;5041043;28;20219;-69
2022/01/15 12:02:38;;;;;;;21.93;10.30;;;4.50;99.90;;;;;;5046073;28;20283;-73
2022/01/15 12:05:17;;;;;;;22.27;11.07;;;4.40;99.90;;;;;;5041611;28;20267;-69
2022/01/15 12:08:05;;;;;;;22.87;10.77;;;4.40;99.90;;;;;;5047819;28;20195;-69
2022/01/15 12:10:46;;;;;;;23.13;11.57;;;4.50;99.90;;;;;;5044519;28;20191;-70
2022/01/15 12:13:20;;;;;;;20.30;9.87;;;4.50;99.90;;;;;;5045758;28;20226;-69
2022/01/15 12:15:48;;;;;;;20.93;10.43;;;4.40;99.90;;;;;;5048227;28;20205;-69
2022/01/15 12:18:16;;;;;;;20.10;10.93;;;4.30;99.90;;;;;;5049083;28;20198;-69
2022/01/15 12:20:42;;;;;;;21.93;10.80;;;4.20;99.90;;;;;;5049811;28;20196;-70
2022/01/15 12:23:18;;;;;;;20.10;10.10;;;4.30;99.90;;;;;;5049915;28;20415;-69
2022/01/15 12:25:51;;;;;;;21.40;10.33;;;4.30;99.90;;;;;;5050019;28;20197;-69
2022/01/15 12:28:18;;;;;;;21.37;11.20;;;4.20;99.90;;;;;;5047480;28;20197;-72
2022/01/15 12:30:47;;;;;;;19.87;10.10;;;4.20;99.90;;;;;;5044419;28;20200;-70
2022/01/15 12:33:19;;;;;;;18.60;10.20;;;4.20;99.90;;;;;;5047523;28;20309;-69
2022/01/15 12:35:56;;;;;;;20.10;10.43;;;4.20;99.90;;;;;;5047895;28;20294;-70
2022/01/15 12:38:25;;;;;;;19.47;9.87;;;4.30;99.90;;;;;;5044629;28;20272;-70
2022/01/15 12:41:04;;;;;;;19.87;10.57;;;4.20;99.90;;;;;;5040017;28;20214;-71
2022/01/15 12:43:35;;;;;;;18.77;10.43;;;4.30;99.90;;;;;;5044409;28;20223;-69
2022/01/15 12:46:13;;;;;;;21.07;10.67;;;4.30;99.90;;;;;;5038935;28;20192;-69
2022/01/15 12:48:45;;;;;;;23.23;10.97;;;4.40;99.90;;;;;;5044537;28;20202;-71
2022/01/15 12:51:21;;;;;;;20.00;10.77;;;4.30;99.90;;;;;;5037305;28;20221;-69
2022/01/15 12:53:57;;;;;;;21.50;11.23;;;4.30;99.90;;;;;;5043935;28;20213;-70
2022/01/15 12:56:27;;;;;;;21.27;11.03;;;4.20;99.90;;;;;;5046385;28;20343;-69
2022/01/15 12:58:55;;;;;;;24.00;11.17;;;4.10;99.90;;;;;;5047802;28;20200;-69
2022/01/15 13:01:26;;;;;;;22.03;11.50;;;4.10;99.90;;;;;;5041700;28;20202;-70
2022/01/15 13:03:53;;;;;;;21.73;11.00;;;4.00;99.90;;;;;;5042621;28;20227;-70
2022/01/15 13:06:25;;;;;;;20.70;10.97;;;4.10;99.90;;;;;;5044356;28;20210;-69
2022/01/15 13:08:55;;;;;;;19.60;10.57;;;4.10;99.90;;;;;;5041834;28;20191;-69
2022/01/15 13:11:24;;;;;;;25.20;11.73;;;4.20;99.90;;;;;;5047186;28;20194;-69
2022/01/15 13:13:56;;;;;;;22.17;10.43;;;4.10;99.90;;;;;;5042699;28;20222;-69
2022/01/15 13:16:26;;;;;;;21.43;11.27;;;4.10;99.90;;;;;;5049342;28;20199;-69
2022/01/15 13:18:57;;;;;;;22.10;11.93;;;4.10;99.90;;;;;;5049568;28;20202;-70